CROATAN NC US current weather conditions

sailwx.info

Wind from 231 at 3 knots gusting 8

Air temperature 14.4° C
Dewpoint 14.1° C

Last reported at 2020-Jan-25 12:05 UTC.
Time now 2020-Jan-25 14:12 UTC

Location: N 34°46' W 076°54'.
View on Google Maps.

See reports from other nearby stations

  
Tides and Currents Weather Stations Pressure Air Temp Water Temp Dewpoint Dewpoint Depression Visibility Wind Speed Wind Dir Waves Ship Positions
date/time (UTC)wind fromknots sea level pressurealtimeterstation pressurevisibilityair tempwater tempwave heightnotes
2020-Jan-25 12:05 231 3 gusting 8 14.4
2020-Jan-25 11:05 237 8 gusting 14 15.6
2020-Jan-25 10:05 192 8 gusting 15 15.6
2020-Jan-25 09:05 172 7 gusting 15 16.1
2020-Jan-25 08:05 165 6 gusting 13 15.6
2020-Jan-25 07:05 201 6 gusting 15 15.6
2020-Jan-25 06:05 153 6 gusting 13 16.1
2020-Jan-25 05:05 155 6 gusting 15 15.6
2020-Jan-25 04:05 148 8 gusting 14 16.1
2020-Jan-25 03:05 163 7 gusting 15 17.2
2020-Jan-25 02:05 152 7 gusting 14 17.2
2020-Jan-25 01:05 143 6 gusting 14 17.2
2020-Jan-25 00:05 119 6 gusting 9 16.7
2020-Jan-24 23:05 106 3 gusting 9 16.7
2020-Jan-24 22:05 136 5 gusting 13 17.8
2020-Jan-24 21:05 127 6 gusting 14 20.0
2020-Jan-24 20:05 105 7 gusting 15 20.6
2020-Jan-24 19:05 118 7 gusting 16 20.0
2020-Jan-24 18:05 120 7 gusting 14 20.0
2020-Jan-24 17:05 116 6 gusting 26 19.4
2020-Jan-24 16:05 056 5 gusting 8 16.1
2020-Jan-24 15:05 027 5 gusting 6 14.4
2020-Jan-24 14:05 050 4 gusting 10 11.7
2020-Jan-24 13:05 046 6 gusting 8 10.6
2020-Jan-24 12:05 029 3 gusting 6 9.4
2020-Jan-24 11:05 014 4 gusting 7 8.9
2020-Jan-24 10:05 005 3 gusting 7 8.9
2020-Jan-24 09:05 023 5 gusting 6 8.9
2020-Jan-24 08:05 007 4 gusting 6 8.9
2020-Jan-24 07:05 024 4 gusting 8 9.4
2020-Jan-24 06:05 027 5 gusting 8 10.0
2020-Jan-24 05:05 030 6 gusting 9 10.6
2020-Jan-24 04:05 038 6 gusting 10 10.6
2020-Jan-24 03:05 040 6 gusting 10 10.6
2020-Jan-24 02:05 041 6 gusting 12 10.6
2020-Jan-24 01:05 032 7 gusting 13 11.1
2020-Jan-24 00:05 038 8 gusting 12 12.2
2020-Jan-23 23:05 032 8 gusting 12 12.8
2020-Jan-23 22:05 035 6 gusting 10 13.9
2020-Jan-23 21:05 029 7 gusting 15 13.9
2020-Jan-23 20:05 033 11 gusting 17 13.9
2020-Jan-23 19:05 020 7 gusting 16 13.9
2020-Jan-23 18:05 035 9 gusting 15 14.4
2020-Jan-23 17:05 047 10 gusting 17 13.9
2020-Jan-23 16:05 033 11 gusting 16 11.1
2020-Jan-23 15:05 031 8 gusting 16 8.3
2020-Jan-23 14:05 018 9 gusting 16 6.1